Time;durP1;ratioP1;P1;durP2;ratioP2;P2;SDS_P1;SDS_P2;PMS_P1;PMS_P2;Temp;Humidity;BMP_temperature;BMP_pressure;BME280_temperature;BME280_humidity;BME280_pressure;Samples;Min_cycle;Max_cycle;Signal;HPM_P1;HPM_P2
2024/03/21 08:09:20;;;;;;;4.40;1.53;;;11.20;99.90;;;;;;4917189;29;20214;-79
2024/03/21 08:11:45;;;;;;;5.30;1.67;;;11.10;99.90;;;;;;4915083;29;20638;-83
2024/03/21 08:14:12;;;;;;;4.17;1.87;;;11.00;99.90;;;;;;4912145;29;20313;-78
2024/03/21 08:16:39;;;;;;;3.37;1.73;;;10.90;99.90;;;;;;4895739;29;20401;-73
2024/03/21 08:19:06;;;;;;;3.70;1.40;;;11.00;99.90;;;;;;4899110;29;20742;-80
2024/03/21 08:21:32;;;;;;;4.03;1.80;;;11.00;99.90;;;;;;4898794;29;20252;-76
2024/03/21 08:23:59;;;;;;;4.50;1.43;;;11.20;99.90;;;;;;4897918;29;20627;-75
2024/03/21 08:26:26;;;;;;;4.03;1.80;;;11.30;99.90;;;;;;4898360;29;20237;-77
2024/03/21 08:28:53;;;;;;;4.17;1.80;;;11.40;99.90;;;;;;4898632;29;20230;-73
2024/03/21 08:31:19;;;;;;;5.00;2.13;;;11.30;99.90;;;;;;4897908;29;20265;-73
2024/03/21 08:33:46;;;;;;;4.43;1.80;;;11.30;99.90;;;;;;4899017;29;20249;-75
2024/03/21 08:36:12;;;;;;;4.87;2.20;;;11.20;99.90;;;;;;4898536;29;20333;-76
2024/03/21 08:38:39;;;;;;;3.80;1.97;;;11.30;99.90;;;;;;4899033;29;20751;-75
2024/03/21 08:41:07;;;;;;;3.70;1.40;;;11.30;99.90;;;;;;4899684;29;20256;-74
2024/03/21 08:43:35;;;;;;;4.10;1.80;;;11.30;99.90;;;;;;4900245;29;20210;-79
2024/03/21 08:46:01;;;;;;;3.73;1.80;;;11.30;99.90;;;;;;4900188;29;20238;-80
2024/03/21 08:48:28;;;;;;;5.20;1.90;;;11.20;99.90;;;;;;4900062;29;20695;-80
2024/03/21 08:50:53;;;;;;;5.33;1.47;;;11.20;99.90;;;;;;4900130;29;20290;-77
2024/03/21 08:53:20;;;;;;;15.67;4.80;;;11.20;99.90;;;;;;4899717;29;20739;-79
2024/03/21 08:55:46;;;;;;;4.53;1.83;;;11.40;99.90;;;;;;4899472;29;20310;-78
2024/03/21 08:58:14;;;;;;;3.67;2.03;;;11.60;99.90;;;;;;4898605;29;20313;-79
2024/03/21 09:00:42;;;;;;;4.93;2.20;;;11.50;99.90;;;;;;4898870;29;20242;-80
2024/03/21 09:03:09;;;;;;;3.77;1.80;;;11.60;99.90;;;;;;4899238;29;20686;-79
2024/03/21 09:05:34;;;;;;;4.43;1.53;;;11.40;99.90;;;;;;4899762;29;20230;-72
2024/03/21 09:08:01;;;;;;;3.73;1.73;;;11.30;99.90;;;;;;4899592;29;20285;-80
2024/03/21 09:10:28;;;;;;;3.37;1.83;;;11.50;99.90;;;;;;4899983;29;20234;-79
2024/03/21 09:12:55;;;;;;;3.90;1.43;;;11.80;99.90;;;;;;4900092;29;20214;-77
2024/03/21 09:15:21;;;;;;;4.57;2.10;;;12.00;99.90;;;;;;4900264;29;20281;-81
2024/03/21 09:17:49;;;;;;;10.20;2.00;;;12.00;99.90;;;;;;4900629;29;20210;-81
2024/03/21 09:20:15;;;;;;;3.60;1.93;;;12.10;99.90;;;;;;4899466;29;20246;-79
2024/03/21 09:22:42;;;;;;;4.30;2.13;;;12.10;99.90;;;;;;4899409;29;20241;-80
2024/03/21 09:25:09;;;;;;;3.77;1.90;;;12.20;99.90;;;;;;4899143;29;20629;-79
2024/03/21 09:27:36;;;;;;;5.00;1.70;;;12.30;99.90;;;;;;4899075;29;20214;-77
2024/03/21 09:30:02;;;;;;;6.00;2.33;;;12.60;99.90;;;;;;4899593;29;20270;-78
2024/03/21 09:32:29;;;;;;;4.30;2.13;;;12.80;99.90;;;;;;4899178;29;20675;-79
2024/03/21 09:34:56;;;;;;;6.10;2.77;;;12.80;99.90;;;;;;4898627;29;20237;-78
2024/03/21 09:37:24;;;;;;;5.87;2.60;;;12.70;99.90;;;;;;4899427;29;20220;-78
2024/03/21 09:39:50;;;;;;;5.00;2.10;;;12.50;99.90;;;;;;4899167;29;20678;-79
2024/03/21 09:42:18;;;;;;;6.00;2.80;;;12.30;99.90;;;;;;4898936;29;20218;-77
2024/03/21 09:44:48;;;;;;;6.83;2.77;;;12.20;99.90;;;;;;4898496;29;20843;-80
2024/03/21 09:47:17;;;;;;;6.30;2.53;;;12.40;99.90;;;;;;4898945;29;20745;-80
2024/03/21 09:49:43;;;;;;;6.67;3.00;;;12.10;99.90;;;;;;4898937;29;20220;-79
2024/03/21 09:52:12;;;;;;;4.33;2.60;;;12.10;99.90;;;;;;4898881;29;20221;-78
2024/03/21 09:54:38;;;;;;;5.60;2.63;;;12.50;99.90;;;;;;4898837;29;20241;-79
2024/03/21 09:57:06;;;;;;;4.77;1.93;;;12.50;99.90;;;;;;4898956;29;20707;-72
2024/03/21 09:59:32;;;;;;;6.13;2.60;;;12.70;99.90;;;;;;4899068;29;20671;-76
2024/03/21 10:01:59;;;;;;;4.27;2.53;;;12.80;99.90;;;;;;4899286;29;20213;-77
2024/03/21 10:04:25;;;;;;;4.43;2.40;;;12.90;99.90;;;;;;4899013;29;20237;-80
2024/03/21 10:06:52;;;;;;;5.13;1.97;;;13.00;99.90;;;;;;4898209;29;20758;-73
2024/03/21 10:09:19;;;;;;;4.00;2.03;;;13.20;99.90;;;;;;4898168;29;20210;-72
2024/03/21 10:11:48;;;;;;;3.30;2.03;;;13.20;99.90;;;;;;4897955;29;20226;-72
2024/03/21 10:14:14;;;;;;;4.43;2.50;;;13.40;99.90;;;;;;4898160;29;20238;-72
2024/03/21 10:16:42;;;;;;;4.53;2.20;;;13.30;99.90;;;;;;4897945;29;20268;-72
2024/03/21 10:19:08;;;;;;;4.43;2.30;;;13.50;99.90;;;;;;4898020;29;20293;-72
2024/03/21 10:21:35;;;;;;;4.80;2.70;;;13.50;99.90;;;;;;4898036;29;20691;-72
2024/03/21 10:24:02;;;;;;;4.83;2.23;;;13.50;99.90;;;;;;4897695;29;20595;-72
2024/03/21 10:26:30;;;;;;;4.47;2.60;;;13.60;99.90;;;;;;4897991;29;20218;-71
2024/03/21 10:28:56;;;;;;;6.37;2.87;;;13.70;99.90;;;;;;4897810;29;20211;-71
2024/03/21 10:31:23;;;;;;;4.83;2.53;;;13.80;99.90;;;;;;4898070;29;20217;-72
2024/03/21 10:33:52;;;;;;;5.23;2.43;;;13.80;99.90;;;;;;4897778;29;20236;-72
2024/03/21 10:36:19;;;;;;;5.07;2.57;;;13.70;99.90;;;;;;4897842;29;20329;-72
2024/03/21 10:38:45;;;;;;;5.07;3.23;;;13.80;99.90;;;;;;4897706;29;20671;-73
2024/03/21 10:41:18;;;;;;;6.03;2.90;;;13.80;99.90;;;;;;4897487;29;20214;-72
2024/03/21 10:43:49;;;;;;;6.37;2.97;;;13.70;99.90;;;;;;4897809;29;20211;-72
2024/03/21 10:46:17;;;;;;;5.60;3.00;;;14.00;99.90;;;;;;4897595;29;20206;-71
2024/03/21 10:48:43;;;;;;;5.83;2.87;;;14.10;99.90;;;;;;4897967;29;20638;-73
2024/03/21 10:51:10;;;;;;;5.20;2.73;;;14.10;99.90;;;;;;4897894;29;20226;-77
2024/03/21 10:53:37;;;;;;;4.53;2.80;;;14.30;99.90;;;;;;4897435;29;20211;-72
2024/03/21 10:56:07;;;;;;;6.77;3.60;;;14.30;99.90;;;;;;4901336;29;20332;-72
2024/03/21 10:58:33;;;;;;;4.57;2.70;;;14.40;99.90;;;;;;4901415;29;20214;-72
2024/03/21 11:01:04;;;;;;;4.97;2.90;;;14.40;99.90;;;;;;4901511;29;20230;-72
2024/03/21 11:03:30;;;;;;;6.10;3.20;;;14.60;99.90;;;;;;4901234;29;20667;-75
2024/03/21 11:05:57;;;;;;;4.17;2.50;;;15.00;99.90;;;;;;4901112;29;20210;-72
2024/03/21 11:08:27;;;;;;;5.07;2.93;;;14.80;99.90;;;;;;4901078;29;20218;-72
2024/03/21 11:10:55;;;;;;;5.13;2.67;;;15.00;99.90;;;;;;4901388;29;20727;-78
2024/03/21 11:13:23;;;;;;;6.63;3.00;;;14.80;99.90;;;;;;4901301;29;20218;-72
2024/03/21 11:15:53;;;;;;;4.00;2.70;;;14.80;99.90;;;;;;4900940;29;20258;-72
2024/03/21 11:18:20;;;;;;;5.70;2.83;;;14.80;99.90;;;;;;4900951;29;20210;-71
2024/03/21 11:20:47;;;;;;;4.20;2.33;;;14.30;99.90;;;;;;4901133;29;20293;-74
2024/03/21 11:23:15;;;;;;;3.63;2.40;;;14.20;99.90;;;;;;4900924;29;20620;-72
2024/03/21 11:25:42;;;;;;;4.13;2.37;;;14.30;99.90;;;;;;4900920;29;20272;-75
2024/03/21 11:28:11;;;;;;;5.07;2.60;;;14.30;99.90;;;;;;4900956;29;20290;-71
2024/03/21 11:30:43;;;;;;;3.20;2.20;;;14.60;99.90;;;;;;4900998;29;20210;-72
2024/03/21 11:33:10;;;;;;;4.43;2.10;;;14.90;99.90;;;;;;4900847;29;20271;-73
2024/03/21 11:35:39;;;;;;;3.40;2.23;;;15.00;99.90;;;;;;4900724;29;20650;-75
2024/03/21 11:38:06;;;;;;;4.30;2.47;;;14.70;99.90;;;;;;4900646;29;20210;-72
2024/03/21 11:40:34;;;;;;;3.93;2.40;;;15.00;99.90;;;;;;4900978;29;20207;-72
2024/03/21 11:43:05;;;;;;;4.73;2.80;;;15.30;99.90;;;;;;4900581;29;20266;-72
2024/03/21 11:45:32;;;;;;;4.23;2.83;;;15.30;99.90;;;;;;4900676;29;20231;-72
2024/03/21 11:48:09;;;;;;;4.57;2.53;;;15.10;99.90;;;;;;4900474;29;20206;-72
2024/03/21 11:50:36;;;;;;;4.23;2.53;;;15.40;99.90;;;;;;4901048;29;20206;-72
2024/03/21 11:53:04;;;;;;;5.67;2.67;;;15.50;99.90;;;;;;4900617;29;20249;-72
2024/03/21 11:55:31;;;;;;;3.87;2.33;;;15.20;99.90;;;;;;4900363;29;20241;-78
2024/03/21 11:57:57;;;;;;;6.27;3.00;;;15.20;99.90;;;;;;4900514;29;20241;-72
2024/03/21 12:00:25;;;;;;;4.77;2.80;;;15.40;99.90;;;;;;4900208;29;20248;-71
2024/03/21 12:02:51;;;;;;;6.90;2.97;;;15.40;99.90;;;;;;4900052;29;20635;-73
2024/03/21 12:05:18;;;;;;;4.47;2.67;;;15.50;99.90;;;;;;4900070;29;20408;-71
2024/03/21 12:07:44;;;;;;;6.17;3.50;;;15.40;99.90;;;;;;4899631;29;20253;-71
2024/03/21 12:10:13;;;;;;;7.80;3.97;;;15.20;99.90;;;;;;4900078;29;20210;-71
2024/03/21 12:12:39;;;;;;;10.77;4.00;;;15.40;99.90;;;;;;4900160;29;20690;-71
2024/03/21 12:15:08;;;;;;;7.83;3.63;;;15.60;99.90;;;;;;4900275;29;20269;-71
2024/03/21 12:17:34;;;;;;;12.63;5.43;;;15.80;99.90;;;;;;4900066;29;20273;-73
2024/03/21 12:20:03;;;;;;;11.93;5.17;;;15.80;99.90;;;;;;4900088;29;20307;-72
2024/03/21 12:22:29;;;;;;;15.47;6.43;;;15.60;99.90;;;;;;4899991;29;20218;-73
2024/03/21 12:24:56;;;;;;;17.40;6.37;;;15.60;99.90;;;;;;4899678;29;20234;-70
2024/03/21 12:27:24;;;;;;;13.90;6.10;;;15.40;99.90;;;;;;4899602;29;20301;-78
2024/03/21 12:29:51;;;;;;;16.83;7.73;;;15.40;99.90;;;;;;4899881;29;20690;-71
2024/03/21 12:32:17;;;;;;;13.83;6.63;;;15.40;99.90;;;;;;4899942;29;20304;-71
2024/03/21 12:34:43;;;;;;;16.13;8.10;;;15.50;99.90;;;;;;4900106;29;20313;-71
2024/03/21 12:37:11;;;;;;;18.83;7.93;;;15.50;99.90;;;;;;4900143;29;20285;-78
2024/03/21 12:39:39;;;;;;;17.07;7.90;;;15.50;99.90;;;;;;4900201;29;20214;-73
2024/03/21 12:42:05;;;;;;;18.67;8.30;;;15.40;99.90;;;;;;4900054;29;20608;-80
2024/03/21 12:44:33;;;;;;;19.67;9.30;;;15.30;99.90;;;;;;4899973;29;20750;-79
2024/03/21 12:46:59;;;;;;;20.40;8.57;;;15.40;99.90;;;;;;4900055;29;20253;-80
2024/03/21 12:49:27;;;;;;;22.83;9.07;;;15.10;99.90;;;;;;4900357;29;20246;-74
2024/03/21 12:51:53;;;;;;;20.93;8.07;;;14.70;99.90;;;;;;4899866;29;20212;-80
2024/03/21 12:54:20;;;;;;;17.83;7.30;;;14.80;99.90;;;;;;4899135;29;20620;-76
2024/03/21 12:56:46;;;;;;;18.07;7.00;;;14.70;99.90;;;;;;4899852;29;20298;-79
2024/03/21 12:59:13;;;;;;;17.13;7.47;;;14.90;99.90;;;;;;4899926;29;20215;-75
2024/03/21 13:01:40;;;;;;;16.43;7.43;;;15.00;99.90;;;;;;4899839;29;20246;-76
2024/03/21 13:04:07;;;;;;;15.30;7.30;;;15.20;99.90;;;;;;4899664;29;20313;-78
2024/03/21 13:06:33;;;;;;;14.77;6.87;;;15.30;99.90;;;;;;4899539;29;20687;-79
2024/03/21 13:09:00;;;;;;;12.20;5.80;;;15.50;99.90;;;;;;4899187;29;20225;-77
2024/03/21 13:11:29;;;;;;;13.07;5.80;;;15.70;99.90;;;;;;4899670;29;20601;-78
2024/03/21 13:13:56;;;;;;;9.67;5.00;;;16.00;99.90;;;;;;4899536;29;20226;-79
2024/03/21 13:16:22;;;;;;;11.67;5.70;;;15.90;99.90;;;;;;4899170;29;20273;-75
2024/03/21 13:18:50;;;;;;;13.00;5.70;;;16.00;99.90;;;;;;4899613;29;20580;-78
2024/03/21 13:21:16;;;;;;;8.60;4.87;;;15.60;99.90;;;;;;4899466;29;20238;-73
2024/03/21 13:23:43;;;;;;;11.00;5.20;;;15.50;99.90;;;;;;4899042;29;20570;-71
2024/03/21 13:26:09;;;;;;;9.30;4.50;;;15.10;99.90;;;;;;4899458;29;20219;-73
2024/03/21 13:28:36;;;;;;;10.53;4.63;;;14.80;99.90;;;;;;4899512;29;20214;-80
2024/03/21 13:31:03;;;;;;;11.40;4.73;;;14.90;99.90;;;;;;4899521;29;20686;-79
2024/03/21 13:33:31;;;;;;;8.03;4.10;;;15.20;99.90;;;;;;4899057;29;20247;-79
2024/03/21 13:35:58;;;;;;;7.93;4.00;;;15.30;99.90;;;;;;4898811;29;20210;-78
2024/03/21 13:38:29;;;;;;;8.37;3.70;;;15.10;99.90;;;;;;4899059;29;20234;-79
2024/03/21 13:40:55;;;;;;;7.33;3.67;;;15.00;99.90;;;;;;4899457;29;20305;-76
2024/03/21 13:43:23;;;;;;;6.53;3.37;;;14.80;99.90;;;;;;4898816;29;20225;-78
2024/03/21 13:45:51;;;;;;;6.70;3.30;;;15.10;99.90;;;;;;4898854;29;20230;-73
2024/03/21 13:48:18;;;;;;;5.10;3.10;;;15.30;99.90;;;;;;4899367;29;20210;-72
2024/03/21 13:50:44;;;;;;;5.07;2.67;;;15.30;99.90;;;;;;4899398;29;20221;-80
2024/03/21 13:53:12;;;;;;;5.50;2.80;;;15.30;99.90;;;;;;4898685;29;20210;-78
2024/03/21 13:55:38;;;;;;;7.23;2.60;;;14.90;99.90;;;;;;4898578;29;20672;-77
2024/03/21 13:58:05;;;;;;;5.07;2.70;;;15.00;99.90;;;;;;4898846;29;20280;-78
2024/03/21 14:00:31;;;;;;;5.33;2.47;;;15.00;99.90;;;;;;4898846;29;20245;-78
2024/03/21 14:02:58;;;;;;;4.90;2.90;;;15.10;99.90;;;;;;4898806;29;20238;-78
2024/03/21 14:05:25;;;;;;;4.00;2.23;;;15.20;99.90;;;;;;4926730;23;20773;-71
2024/03/21 14:07:52;;;;;;;4.13;2.30;;;15.40;99.90;;;;;;4916895;29;20213;-72
2024/03/21 14:10:20;;;;;;;3.63;2.37;;;15.40;99.90;;;;;;4916890;29;20240;-71
2024/03/21 14:12:48;;;;;;;2.90;2.00;;;15.50;99.90;;;;;;4917084;29;20216;-71
2024/03/21 14:15:14;;;;;;;2.83;2.00;;;15.40;99.90;;;;;;4917100;29;20281;-72
2024/03/21 14:17:41;;;;;;;3.20;2.10;;;15.30;99.90;;;;;;4916125;29;20248;-72
2024/03/21 14:20:10;;;;;;;4.23;1.87;;;15.50;99.90;;;;;;4916254;29;20214;-72
2024/03/21 14:22:37;;;;;;;4.30;2.10;;;15.20;99.90;;;;;;4916560;29;20734;-71
2024/03/21 14:25:03;;;;;;;4.10;2.10;;;14.90;99.90;;;;;;4916524;29;20230;-72
2024/03/21 14:27:33;;;;;;;4.73;2.13;;;15.00;99.90;;;;;;4916756;29;20213;-72
2024/03/21 14:30:01;;;;;;;2.97;2.10;;;15.30;99.90;;;;;;4916297;29;20209;-72
2024/03/21 14:32:28;;;;;;;3.23;2.10;;;15.30;99.90;;;;;;4916517;29;20209;-72
2024/03/21 14:34:54;;;;;;;5.07;2.03;;;15.20;99.90;;;;;;4916476;29;20316;-72
2024/03/21 14:37:21;;;;;;;3.20;2.10;;;15.30;99.90;;;;;;4916934;29;20328;-72
2024/03/21 14:39:47;;;;;;;5.07;2.03;;;15.30;99.90;;;;;;4916130;29;20300;-71
2024/03/21 14:42:14;;;;;;;5.30;2.37;;;15.40;99.90;;;;;;4916698;29;20305;-71
2024/03/21 14:44:41;;;;;;;4.23;2.40;;;15.30;99.90;;;;;;4916275;29;20230;-72
2024/03/21 14:47:08;;;;;;;2.80;2.00;;;15.10;99.90;;;;;;4916636;29;20210;-72
2024/03/21 14:49:34;;;;;;;3.53;2.50;;;15.40;99.90;;;;;;4916508;29;20678;-74
2024/03/21 14:52:01;;;;;;;2.60;2.00;;;15.20;99.90;;;;;;4916290;29;20249;-73
2024/03/21 14:54:27;;;;;;;4.37;2.60;;;15.10;99.90;;;;;;4916139;29;20272;-72
2024/03/21 14:56:54;;;;;;;3.43;2.27;;;15.10;99.90;;;;;;4916339;29;20237;-72
2024/03/21 14:59:20;;;;;;;3.37;2.13;;;15.00;99.90;;;;;;4916433;29;20743;-72
2024/03/21 15:01:48;;;;;;;3.13;2.23;;;15.00;99.90;;;;;;4916321;29;20292;-72
2024/03/21 15:04:14;;;;;;;3.77;2.27;;;15.00;99.90;;;;;;4915738;29;20264;-72
2024/03/21 15:06:41;;;;;;;4.27;2.27;;;15.10;99.90;;;;;;4916333;29;20244;-72
2024/03/21 15:09:07;;;;;;;6.30;2.47;;;15.10;99.90;;;;;;4916260;29;20206;-72
2024/03/21 15:11:34;;;;;;;3.53;2.30;;;15.30;99.90;;;;;;4916105;29;20213;-72
2024/03/21 15:14:02;;;;;;;3.40;2.30;;;15.30;99.90;;;;;;4916196;29;20280;-73
2024/03/21 15:16:30;;;;;;;3.53;2.07;;;15.00;99.90;;;;;;4916356;29;20268;-72
2024/03/21 15:18:58;;;;;;;3.10;2.17;;;15.00;99.90;;;;;;4916158;29;20689;-72
2024/03/21 15:21:25;;;;;;;3.97;2.50;;;15.00;99.90;;;;;;4916212;29;20212;-72
2024/03/21 15:23:51;;;;;;;3.07;2.30;;;15.00;99.90;;;;;;4915930;29;20261;-72
2024/03/21 15:26:18;;;;;;;5.87;2.50;;;15.00;99.90;;;;;;4916089;29;20206;-72
2024/03/21 15:28:44;;;;;;;3.63;2.37;;;15.00;99.90;;;;;;4916026;29;20245;-72
2024/03/21 15:31:11;;;;;;;3.97;2.50;;;15.10;99.90;;;;;;4916057;29;20245;-72
2024/03/21 15:33:37;;;;;;;2.87;2.30;;;15.10;99.90;;;;;;4915906;29;20248;-72
2024/03/21 15:36:06;;;;;;;5.80;2.43;;;15.00;99.90;;;;;;4916006;29;20241;-72
2024/03/21 15:38:32;;;;;;;4.13;2.53;;;14.80;99.90;;;;;;4915886;29;20214;-72
2024/03/21 15:40:59;;;;;;;3.73;2.43;;;14.80;99.90;;;;;;4916278;29;20230;-71
2024/03/21 15:43:25;;;;;;;4.77;2.33;;;14.60;99.90;;;;;;4919773;29;20242;-72
2024/03/21 15:45:51;;;;;;;2.57;2.23;;;14.50;99.90;;;;;;4919530;29;20730;-72
2024/03/21 15:48:18;;;;;;;4.10;2.53;;;14.50;99.90;;;;;;4919443;29;20245;-71
2024/03/21 15:50:44;;;;;;;5.17;2.93;;;14.60;99.90;;;;;;4919345;29;20289;-72
2024/03/21 15:53:13;;;;;;;4.10;2.20;;;14.70;99.90;;;;;;4919095;29;20245;-72
2024/03/21 15:55:41;;;;;;;3.37;2.27;;;14.70;99.90;;;;;;4918985;29;20233;-72
2024/03/21 15:58:08;;;;;;;4.60;2.40;;;14.60;99.90;;;;;;4919056;29;20269;-73
2024/03/21 16:00:35;;;;;;;4.73;2.83;;;14.60;99.90;;;;;;4919127;29;20685;-73
2024/03/21 16:03:01;;;;;;;2.80;2.50;;;14.50;99.90;;;;;;4919252;29;20710;-73
2024/03/21 16:05:28;;;;;;;3.63;2.63;;;14.10;99.90;;;;;;4918831;29;20268;-73
2024/03/21 16:07:54;;;;;;;4.43;3.00;;;14.10;99.90;;;;;;4918735;29;20577;-73
2024/03/21 16:10:22;;;;;;;5.47;3.03;;;14.20;99.90;;;;;;4918851;29;20205;-73
2024/03/21 16:12:50;;;;;;;4.17;2.30;;;14.30;99.90;;;;;;4918872;29;20671;-73
2024/03/21 16:15:17;;;;;;;6.17;2.63;;;14.30;99.90;;;;;;4918836;29;20572;-72
2024/03/21 16:17:43;;;;;;;3.63;2.50;;;14.30;99.90;;;;;;4918964;29;20237;-73
2024/03/21 16:20:11;;;;;;;3.97;2.43;;;14.40;99.90;;;;;;4918948;29;20290;-73
2024/03/21 16:22:39;;;;;;;4.83;2.73;;;14.30;99.90;;;;;;4918892;29;20571;-73
2024/03/21 16:25:06;;;;;;;4.20;2.60;;;14.30;99.90;;;;;;4918775;29;20245;-72
2024/03/21 16:27:34;;;;;;;4.90;3.00;;;14.20;99.90;;;;;;4919085;29;20405;-72
2024/03/21 16:30:01;;;;;;;4.20;2.63;;;14.30;99.90;;;;;;4918563;29;20730;-73
2024/03/21 16:32:27;;;;;;;4.17;2.80;;;14.40;99.90;;;;;;4918484;29;20209;-72
2024/03/21 16:34:55;;;;;;;4.60;2.87;;;14.40;99.90;;;;;;4918369;29;20304;-72
2024/03/21 16:37:21;;;;;;;5.37;2.70;;;14.30;99.90;;;;;;4918501;29;20268;-72
2024/03/21 16:39:48;;;;;;;7.03;3.23;;;14.20;99.90;;;;;;4918499;29;20297;-72
2024/03/21 16:42:14;;;;;;;4.23;2.93;;;14.00;99.90;;;;;;4918450;29;20213;-72
2024/03/21 16:44:42;;;;;;;4.47;2.90;;;14.10;99.90;;;;;;4918447;29;20301;-73
2024/03/21 16:47:08;;;;;;;5.83;3.23;;;14.00;99.90;;;;;;4918364;29;20301;-72
2024/03/21 16:49:36;;;;;;;5.27;3.27;;;14.00;99.90;;;;;;4918474;29;20210;-72
2024/03/21 16:52:03;;;;;;;4.17;2.53;;;14.00;99.90;;;;;;4918049;29;20304;-72
2024/03/21 16:54:32;;;;;;;4.33;2.83;;;14.00;99.90;;;;;;4918262;29;20237;-72
2024/03/21 16:56:58;;;;;;;9.67;4.50;;;14.00;99.90;;;;;;4917985;29;20233;-72
2024/03/21 16:59:27;;;;;;;5.43;2.90;;;14.00;99.90;;;;;;4917754;29;20738;-72
2024/03/21 17:01:54;;;;;;;6.50;2.90;;;14.10;99.90;;;;;;4918036;29;20690;-72
2024/03/21 17:04:21;;;;;;;5.63;3.13;;;14.10;99.90;;;;;;4918012;29;20245;-72
2024/03/21 17:06:47;;;;;;;6.73;3.17;;;14.20;99.90;;;;;;4917542;29;20307;-72
2024/03/21 17:09:15;;;;;;;5.03;2.97;;;14.20;99.90;;;;;;4917653;29;20241;-72
2024/03/21 17:11:42;;;;;;;8.03;3.70;;;14.00;99.90;;;;;;4917809;29;20214;-72
2024/03/21 17:14:09;;;;;;;6.93;3.40;;;13.80;99.90;;;;;;4917655;29;20322;-72
2024/03/21 17:16:35;;;;;;;6.40;3.63;;;13.70;99.90;;;;;;4917518;29;20213;-72
2024/03/21 17:19:03;;;;;;;7.07;3.97;;;13.60;99.90;;;;;;4917437;29;20217;-72
2024/03/21 17:21:29;;;;;;;7.50;4.00;;;13.40;99.90;;;;;;4917754;29;20248;-72
2024/03/21 17:23:56;;;;;;;7.43;3.40;;;13.50;99.90;;;;;;4917283;29;20261;-72
2024/03/21 17:26:22;;;;;;;7.97;4.03;;;13.50;99.90;;;;;;4917453;29;20486;-72
2024/03/21 17:28:49;;;;;;;9.67;4.10;;;13.50;99.90;;;;;;4917814;29;20248;-72
2024/03/21 17:31:15;;;;;;;8.77;4.23;;;13.60;99.90;;;;;;4917403;29;20309;-72
2024/03/21 17:33:41;;;;;;;8.73;4.10;;;13.50;99.90;;;;;;4917331;29;20300;-72
2024/03/21 17:36:09;;;;;;;11.97;4.67;;;13.50;99.90;;;;;;4917381;29;20669;-72
2024/03/21 17:38:36;;;;;;;12.00;4.47;;;13.60;99.90;;;;;;4917492;29;20244;-72
2024/03/21 17:41:04;;;;;;;11.93;4.70;;;13.60;99.90;;;;;;4917303;29;20237;-72
2024/03/21 17:43:31;;;;;;;12.63;4.63;;;13.60;99.90;;;;;;4917145;29;20209;-72
2024/03/21 17:45:57;;;;;;;13.50;5.43;;;13.50;99.90;;;;;;4917190;29;20244;-72
2024/03/21 17:48:24;;;;;;;14.13;5.50;;;13.40;99.90;;;;;;4917301;29;20241;-72
2024/03/21 17:50:50;;;;;;;14.70;5.50;;;13.50;99.90;;;;;;4917152;29;20304;-72
2024/03/21 17:53:18;;;;;;;18.63;6.77;;;13.50;99.90;;;;;;4916957;29;20301;-72
2024/03/21 17:55:44;;;;;;;18.30;6.20;;;13.50;99.90;;;;;;4916824;29;20736;-72
2024/03/21 17:58:11;;;;;;;19.67;6.30;;;13.60;99.90;;;;;;4917087;29;20273;-72
2024/03/21 18:00:37;;;;;;;14.87;5.63;;;13.50;99.90;;;;;;4916903;29;20306;-72
2024/03/21 18:03:04;;;;;;;20.57;7.17;;;13.40;99.90;;;;;;4917122;29;20301;-70
2024/03/21 18:05:33;;;;;;;20.10;7.90;;;13.40;99.90;;;;;;4916361;29;20324;-70
2024/03/21 18:08:00;;;;;;;21.87;7.50;;;13.50;99.90;;;;;;4916962;29;20288;-71
2024/03/21 18:10:27;;;;;;;17.47;6.83;;;13.50;99.90;;;;;;4916887;29;20641;-72
2024/03/21 18:12:54;;;;;;;20.70;7.73;;;13.30;99.90;;;;;;4916963;29;20217;-72
2024/03/21 18:15:20;;;;;;;25.20;8.00;;;13.20;99.90;;;;;;4916958;29;20257;-72
2024/03/21 18:17:47;;;;;;;21.00;7.30;;;13.10;99.90;;;;;;4912715;29;20279;-72
2024/03/21 18:20:13;;;;;;;21.00;8.00;;;13.10;99.90;;;;;;4915873;29;20304;-72
2024/03/21 18:22:40;;;;;;;19.50;7.23;;;13.20;99.90;;;;;;4916530;29;20205;-72
2024/03/21 18:25:07;;;;;;;20.47;7.50;;;13.20;99.90;;;;;;4911661;29;20243;-72
2024/03/21 18:27:35;;;;;;;18.27;7.27;;;13.30;99.90;;;;;;4915764;29;20275;-72
2024/03/21 18:30:02;;;;;;;18.70;7.23;;;13.30;99.90;;;;;;4915629;29;20334;-72
2024/03/21 18:32:28;;;;;;;21.67;8.83;;;13.20;99.90;;;;;;4914356;29;20241;-72
2024/03/21 18:34:54;;;;;;;22.73;8.33;;;13.20;99.90;;;;;;4906676;29;20695;-72
2024/03/21 18:37:21;;;;;;;24.90;7.27;;;13.20;99.90;;;;;;4906886;29;20276;-72
2024/03/21 18:39:48;;;;;;;21.87;7.80;;;13.20;99.90;;;;;;4915955;29;20304;-72
2024/03/21 18:42:15;;;;;;;16.03;6.03;;;13.20;99.90;;;;;;4916339;29;20217;-72
2024/03/21 18:44:42;;;;;;;17.13;6.37;;;13.20;99.90;;;;;;4915931;29;20264;-72
2024/03/21 18:47:11;;;;;;;19.57;7.07;;;13.20;99.90;;;;;;4916101;29;20610;-71
2024/03/21 18:49:37;;;;;;;16.07;6.87;;;13.30;99.90;;;;;;4915548;29;20568;-72
2024/03/21 18:52:04;;;;;;;18.97;6.80;;;13.30;99.90;;;;;;4916181;29;20248;-72
2024/03/21 18:54:33;;;;;;;16.50;6.87;;;13.30;99.90;;;;;;4914950;29;20272;-72
2024/03/21 18:57:00;;;;;;;18.73;6.63;;;13.30;99.90;;;;;;4910459;29;20218;-73
2024/03/21 18:59:27;;;;;;;18.60;6.70;;;13.30;99.90;;;;;;4915620;29;20237;-72
2024/03/21 19:01:55;;;;;;;18.27;7.07;;;13.30;99.90;;;;;;4915215;29;20675;-72
2024/03/21 19:04:21;;;;;;;15.63;6.60;;;13.30;99.90;;;;;;4915072;29;20234;-71
2024/03/21 19:06:48;;;;;;;15.07;6.97;;;13.30;99.90;;;;;;4915560;29;20300;-71
2024/03/21 19:09:14;;;;;;;15.00;6.63;;;13.30;99.90;;;;;;4915900;29;20245;-72
2024/03/21 19:11:41;;;;;;;17.73;7.13;;;13.20;99.90;;;;;;4915806;29;20245;-71
2024/03/21 19:14:07;;;;;;;15.80;7.40;;;13.20;99.90;;;;;;4915284;29;20253;-71
2024/03/21 19:16:34;;;;;;;16.90;6.33;;;13.10;99.90;;;;;;4918164;29;20708;-71
2024/03/21 19:19:01;;;;;;;16.30;6.93;;;13.00;99.90;;;;;;4918531;29;20265;-71
2024/03/21 19:21:28;;;;;;;18.13;7.50;;;13.00;99.90;;;;;;4918845;29;20210;-71
2024/03/21 19:23:54;;;;;;;19.77;7.70;;;13.10;99.90;;;;;;4918417;29;20658;-71
2024/03/21 19:26:21;;;;;;;18.30;7.77;;;13.00;99.90;;;;;;4912361;29;20246;-71
2024/03/21 19:28:47;;;;;;;19.33;8.50;;;13.10;99.90;;;;;;4910955;29;20213;-71
2024/03/21 19:31:14;;;;;;;17.53;7.50;;;13.10;99.90;;;;;;4918887;29;20224;-71
2024/03/21 19:33:40;;;;;;;18.07;7.50;;;13.00;99.90;;;;;;4918038;29;20241;-71
2024/03/21 19:36:08;;;;;;;17.37;6.90;;;13.00;99.90;;;;;;4918711;29;20304;-71
2024/03/21 19:38:34;;;;;;;17.90;7.63;;;13.00;99.90;;;;;;4917795;29;20281;-71
2024/03/21 19:41:01;;;;;;;19.53;7.97;;;13.00;99.90;;;;;;4918763;29;20323;-72
2024/03/21 19:43:27;;;;;;;21.77;8.33;;;12.90;99.90;;;;;;4918861;29;20248;-71
2024/03/21 19:45:54;;;;;;;19.73;7.27;;;12.90;99.90;;;;;;4924950;29;20210;-71
2024/03/21 19:48:21;;;;;;;22.00;8.30;;;12.80;99.90;;;;;;4922613;29;20233;-71
2024/03/21 19:50:47;;;;;;;18.17;7.67;;;12.90;99.90;;;;;;4917440;29;20206;-71
2024/03/21 19:53:15;;;;;;;21.27;8.20;;;12.90;99.90;;;;;;4918048;29;20249;-71
2024/03/21 19:55:42;;;;;;;24.10;8.77;;;12.80;99.90;;;;;;4917904;29;20622;-70
2024/03/21 19:58:10;;;;;;;23.57;8.83;;;12.80;99.90;;;;;;4905853;29;20329;-72
2024/03/21 20:00:42;;;;;;;18.50;8.03;;;12.70;99.90;;;;;;4913078;29;20607;-71
2024/03/21 20:03:08;;;;;;;20.27;8.67;;;12.70;99.90;;;;;;4914833;29;20296;-71
2024/03/21 20:05:34;;;;;;;21.23;8.57;;;12.70;99.90;;;;;;4918191;29;20276;-71
2024/03/21 20:08:00;;;;;;;22.73;9.53;;;12.70;99.90;;;;;;4917523;29;20233;-71
2024/03/21 20:10:29;;;;;;;17.77;8.40;;;12.70;99.90;;;;;;4917380;29;20714;-71
2024/03/21 20:12:55;;;;;;;18.53;7.90;;;12.70;99.90;;;;;;4917772;29;20297;-71
2024/03/21 20:15:21;;;;;;;20.40;7.93;;;12.60;99.90;;;;;;4917493;29;20682;-71
2024/03/21 20:17:47;;;;;;;21.47;8.93;;;12.60;99.90;;;;;;4917186;29;20363;-71
2024/03/21 20:20:14;;;;;;;19.87;8.37;;;12.60;99.90;;;;;;4917489;29;20759;-71
2024/03/21 20:22:40;;;;;;;23.20;9.00;;;12.60;99.90;;;;;;4917553;29;20304;-72
2024/03/21 20:25:08;;;;;;;23.30;9.17;;;12.60;99.90;;;;;;4917166;29;20665;-71
2024/03/21 20:27:35;;;;;;;20.97;9.27;;;12.60;99.90;;;;;;4916948;29;20641;-71
2024/03/21 20:30:03;;;;;;;21.03;8.53;;;12.60;99.90;;;;;;4908115;29;20221;-72
2024/03/21 20:32:29;;;;;;;21.13;8.73;;;12.60;99.90;;;;;;4917526;29;20615;-71
2024/03/21 20:34:56;;;;;;;24.73;8.67;;;12.60;99.90;;;;;;4917527;29;20280;-71
2024/03/21 20:37:22;;;;;;;18.37;8.40;;;12.60;99.90;;;;;;4917386;29;20632;-71
2024/03/21 20:39:50;;;;;;;25.23;9.97;;;12.60;99.90;;;;;;4917683;29;20274;-71
2024/03/21 20:42:16;;;;;;;24.40;8.67;;;12.70;99.90;;;;;;4917414;29;20245;-71
2024/03/21 20:44:46;;;;;;;20.40;8.20;;;12.70;99.90;;;;;;4917587;29;20280;-71
2024/03/21 20:47:12;;;;;;;16.73;7.60;;;12.80;99.90;;;;;;4917069;29;20245;-71
2024/03/21 20:49:38;;;;;;;22.33;8.97;;;12.80;99.90;;;;;;4917878;29;20611;-70